createdAt,value
2019-02-19T00:02:14.538Z,16.73
2019-02-19T00:04:43.261Z,18.23
2019-02-19T00:07:11.938Z,19.97
2019-02-19T00:09:40.614Z,22.40
2019-02-19T00:12:09.291Z,21.77
2019-02-19T00:14:38.147Z,24.60
2019-02-19T00:17:06.822Z,21.37
2019-02-19T00:19:35.546Z,24.27
2019-02-19T00:22:04.716Z,23.70
2019-02-19T00:24:33.379Z,26.43
2019-02-19T00:27:02.066Z,28.90
2019-02-19T00:29:30.741Z,29.00
2019-02-19T00:31:59.407Z,41.60
2019-02-19T00:34:28.084Z,29.13
2019-02-19T00:36:56.761Z,32.27
2019-02-19T00:39:25.445Z,31.20
2019-02-19T00:41:54.156Z,36.80
2019-02-19T00:44:22.927Z,21.33
2019-02-19T00:46:51.667Z,26.40
2019-02-19T00:49:20.348Z,23.13
2019-02-19T00:51:49.022Z,23.17
2019-02-19T00:54:17.689Z,19.87
2019-02-19T00:56:46.467Z,19.07
2019-02-19T00:59:15.184Z,18.83
2019-02-19T01:01:44.007Z,17.47
2019-02-19T01:04:12.651Z,18.93
2019-02-19T01:06:41.331Z,22.73
2019-02-19T01:09:10.136Z,21.00
2019-02-19T01:11:38.766Z,24.37
2019-02-19T01:14:07.551Z,20.83
2019-02-19T01:16:36.220Z,19.40
2019-02-19T01:19:04.893Z,21.93
2019-02-19T01:21:33.571Z,21.13
2019-02-19T01:24:02.239Z,19.50
2019-02-19T01:26:30.940Z,21.10
2019-02-19T01:28:59.791Z,20.60
2019-02-19T01:31:28.477Z,19.07
2019-02-19T01:33:57.140Z,22.33
2019-02-19T01:36:25.815Z,22.93
2019-02-19T01:38:54.494Z,19.13
2019-02-19T01:41:23.264Z,25.93
2019-02-19T01:43:51.934Z,21.70
2019-02-19T01:46:20.615Z,31.40
2019-02-19T01:48:49.293Z,29.67
2019-02-19T01:51:17.948Z,26.67
2019-02-19T01:53:46.627Z,27.47
2019-02-19T01:56:15.311Z,25.73
2019-02-19T01:58:44.093Z,32.47
2019-02-19T02:01:12.836Z,22.90
2019-02-19T02:03:41.496Z,22.77
2019-02-19T02:06:10.175Z,20.50
2019-02-19T02:08:38.854Z,17.07
2019-02-19T02:11:07.516Z,20.53
2019-02-19T02:13:36.403Z,18.57
2019-02-19T02:16:05.090Z,21.67
2019-02-19T02:18:33.766Z,21.17
2019-02-19T02:21:02.452Z,19.90
2019-02-19T02:23:31.133Z,16.33
2019-02-19T02:25:59.798Z,17.10
2019-02-19T02:28:28.471Z,20.67
2019-02-19T02:30:57.145Z,17.27
2019-02-19T02:33:26.020Z,15.87
2019-02-19T02:35:54.716Z,19.80
2019-02-19T02:38:23.367Z,15.87
2019-02-19T02:40:52.030Z,15.60
2019-02-19T02:43:20.694Z,14.07
2019-02-19T02:45:53.547Z,14.10
2019-02-19T02:48:19.840Z,15.57
2019-02-19T02:50:48.501Z,14.03
2019-02-19T02:53:17.168Z,15.70
2019-02-19T02:55:45.832Z,16.27
2019-02-19T02:58:14.499Z,17.53
2019-02-19T03:00:43.168Z,16.03
2019-02-19T03:03:11.967Z,16.50
2019-02-19T03:05:43.658Z,17.47
2019-02-19T03:08:12.336Z,15.93
2019-02-19T03:10:41.023Z,16.73
2019-02-19T03:13:09.693Z,15.17
2019-02-19T03:15:38.368Z,17.73
2019-02-19T03:18:07.066Z,18.23
2019-02-19T03:20:35.758Z,16.47
2019-02-19T03:23:04.434Z,14.53
2019-02-19T03:25:33.091Z,14.53
2019-02-19T03:28:01.779Z,15.60
2019-02-19T03:30:30.437Z,16.47
2019-02-19T03:32:59.118Z,15.00
2019-02-19T03:35:27.794Z,17.07
2019-02-19T03:37:56.470Z,17.27
2019-02-19T03:40:25.141Z,14.87
2019-02-19T03:42:54.011Z,15.10
2019-02-19T03:45:22.670Z,15.50
2019-02-19T03:47:51.348Z,13.87
2019-02-19T03:50:20.013Z,18.33
2019-02-19T03:52:48.950Z,14.27
2019-02-19T03:55:17.615Z,14.37
2019-02-19T03:57:46.376Z,14.17
2019-02-19T04:00:15.035Z,14.40
2019-02-19T04:02:43.871Z,13.47
2019-02-19T04:05:12.681Z,13.07
2019-02-19T04:07:41.403Z,14.17
2019-02-19T04:10:10.084Z,14.10
2019-02-19T04:12:38.754Z,11.67
2019-02-19T04:15:08.361Z,12.53
2019-02-19T04:17:37.030Z,14.37
2019-02-19T04:20:09.396Z,16.93
2019-02-19T04:22:38.162Z,16.20
2019-02-19T04:25:06.935Z,14.50
2019-02-19T04:27:35.604Z,14.43
2019-02-19T04:30:05.566Z,11.10
2019-02-19T04:32:34.232Z,14.10
2019-02-19T04:35:02.911Z,14.47
2019-02-19T04:37:31.572Z,16.87
2019-02-19T04:40:00.349Z,14.73
2019-02-19T04:42:28.983Z,12.57
2019-02-19T04:44:57.777Z,13.17
2019-02-19T04:47:26.445Z,14.40
2019-02-19T04:49:55.115Z,14.60
2019-02-19T04:52:23.928Z,13.90
2019-02-19T04:54:52.597Z,11.97
2019-02-19T04:57:21.308Z,17.57
2019-02-19T04:59:50.260Z,14.57
2019-02-19T05:02:18.968Z,20.93
2019-02-19T05:04:47.616Z,18.53
2019-02-19T05:07:16.342Z,16.17
2019-02-19T05:09:44.989Z,14.87
2019-02-19T05:12:13.651Z,12.70
2019-02-19T05:14:42.338Z,17.57
2019-02-19T05:17:11.002Z,13.50
2019-02-19T05:19:39.730Z,16.30
2019-02-19T05:22:08.397Z,15.20
2019-02-19T05:24:37.059Z,14.73
2019-02-19T05:27:05.731Z,13.73
2019-02-19T05:29:36.947Z,12.40
2019-02-19T05:32:05.666Z,12.60
2019-02-19T05:34:34.326Z,15.53
2019-02-19T05:37:02.999Z,13.60
2019-02-19T05:39:31.679Z,14.60
2019-02-19T05:42:00.334Z,13.40
2019-02-19T05:44:29.007Z,14.50
2019-02-19T05:46:57.680Z,14.83
2019-02-19T05:49:26.336Z,14.97
2019-02-19T05:51:55.008Z,15.13
2019-02-19T05:54:23.746Z,21.40
2019-02-19T05:56:52.434Z,18.07
2019-02-19T05:59:21.122Z,17.30
2019-02-19T06:01:49.886Z,16.53
2019-02-19T06:04:18.943Z,16.47
2019-02-19T06:06:47.641Z,14.20
2019-02-19T06:09:16.309Z,17.57
2019-02-19T06:11:44.971Z,15.87
2019-02-19T06:14:13.694Z,22.27
2019-02-19T06:16:42.418Z,21.63
2019-02-19T06:19:11.096Z,23.90
2019-02-19T06:21:40.076Z,20.97
2019-02-19T06:24:08.932Z,19.00
2019-02-19T06:26:37.616Z,22.13
2019-02-19T06:29:06.278Z,18.70
2019-02-19T06:31:35.054Z,18.67
2019-02-19T06:34:03.818Z,25.87
2019-02-19T06:36:32.502Z,20.80
2019-02-19T06:39:01.471Z,23.67
2019-02-19T06:41:30.164Z,24.03
2019-02-19T06:43:58.843Z,27.17
2019-02-19T06:46:29.315Z,30.10
2019-02-19T06:48:57.931Z,22.93
2019-02-19T06:51:26.792Z,20.90
2019-02-19T06:53:55.839Z,25.30
2019-02-19T06:56:25.101Z,25.67
2019-02-19T06:58:54.524Z,28.50
2019-02-19T07:01:24.952Z,21.07
2019-02-19T07:03:55.198Z,16.10
2019-02-19T07:06:23.911Z,15.47
2019-02-19T07:08:52.875Z,18.27
2019-02-19T07:11:21.630Z,13.00
2019-02-19T07:13:50.541Z,13.90
2019-02-19T07:16:19.353Z,13.30
2019-02-19T07:18:48.580Z,21.97
2019-02-19T07:21:17.431Z,18.07
2019-02-19T07:23:46.213Z,23.07
2019-02-19T07:26:14.938Z,21.43
2019-02-19T07:28:43.831Z,26.60
2019-02-19T07:31:14.327Z,26.00
2019-02-19T07:33:43.017Z,17.73
2019-02-19T07:36:11.955Z,17.30
2019-02-19T07:38:40.666Z,16.13
2019-02-19T07:41:09.513Z,17.90
2019-02-19T07:43:38.820Z,19.57
2019-02-19T07:46:07.900Z,125.73
2019-02-19T07:48:40.245Z,28.70
2019-02-19T07:51:09.273Z,22.70
2019-02-19T07:53:38.076Z,33.23
2019-02-19T07:56:06.988Z,22.13
2019-02-19T07:58:36.090Z,24.33
2019-02-19T08:01:04.921Z,25.83
2019-02-19T08:03:33.704Z,29.23
2019-02-19T08:06:02.989Z,29.63
2019-02-19T08:08:32.128Z,37.20
2019-02-19T08:11:01.177Z,24.07
2019-02-19T08:13:30.121Z,23.50
2019-02-19T08:15:59.046Z,25.37
2019-02-19T08:18:27.740Z,27.30
2019-02-19T08:20:56.431Z,42.40
2019-02-19T08:23:25.444Z,38.17
2019-02-19T08:25:54.120Z,25.40
2019-02-19T08:28:23.024Z,29.33
2019-02-19T08:30:51.788Z,27.77
2019-02-19T08:33:20.501Z,28.80
2019-02-19T08:35:49.317Z,27.57
2019-02-19T08:38:18.348Z,28.47
2019-02-19T08:40:47.563Z,32.83
2019-02-19T08:43:16.255Z,39.53
2019-02-19T08:45:45.247Z,41.40
2019-02-19T08:48:14.410Z,36.50
2019-02-19T08:50:43.372Z,33.33
2019-02-19T08:53:12.521Z,41.20
2019-02-19T08:55:42.050Z,41.73
2019-02-19T08:58:10.852Z,35.20
2019-02-19T09:00:39.604Z,35.27
2019-02-19T09:03:08.320Z,39.67
2019-02-19T09:05:37.089Z,33.27
2019-02-19T09:08:05.949Z,82.50
2019-02-19T09:10:35.124Z,55.47
2019-02-19T09:13:04.475Z,58.17
2019-02-19T09:15:33.426Z,36.90
2019-02-19T09:18:02.372Z,35.63
2019-02-19T09:20:31.193Z,37.17
2019-02-19T09:22:59.882Z,40.10
2019-02-19T09:25:29.221Z,47.63
2019-02-19T09:27:57.909Z,31.37
2019-02-19T09:30:26.920Z,35.93
2019-02-19T09:32:55.844Z,30.20
2019-02-19T09:35:24.953Z,32.53
2019-02-19T09:37:53.848Z,35.83
2019-02-19T09:40:23.285Z,37.57
2019-02-19T09:42:56.478Z,37.20
2019-02-19T09:45:25.534Z,33.27
2019-02-19T09:48:01.032Z,30.97
2019-02-19T09:50:25.144Z,29.43
2019-02-19T09:52:59.800Z,29.00
2019-02-19T09:55:24.928Z,27.85
2019-02-19T10:00:22.222Z,30.82
2019-02-19T10:02:50.953Z,31.95
2019-02-19T10:05:19.889Z,31.25
2019-02-19T10:07:48.663Z,27.93
2019-02-19T10:10:19.964Z,27.00
2019-02-19T10:12:49.319Z,33.02
2019-02-19T10:15:18.221Z,32.67
2019-02-19T10:17:46.969Z,36.10
2019-02-19T10:20:16.288Z,35.03
2019-02-19T10:22:45.174Z,35.10
2019-02-19T10:25:15.551Z,31.60
2019-02-19T10:27:44.284Z,38.00
2019-02-19T10:30:17.922Z,35.30
2019-02-19T10:32:46.714Z,50.70
2019-02-19T10:35:15.382Z,39.50
2019-02-19T10:37:45.778Z,42.13
2019-02-19T10:40:27.231Z,39.23
2019-02-19T10:42:56.005Z,38.93
2019-02-19T10:45:26.258Z,42.70
2019-02-19T10:47:55.077Z,41.40
2019-02-19T10:50:24.202Z,39.90
2019-02-19T10:52:53.618Z,40.00
2019-02-19T10:55:22.763Z,40.80
2019-02-19T10:57:52.600Z,38.65
2019-02-19T11:00:23.674Z,39.10
2019-02-19T11:02:52.785Z,36.10
2019-02-19T11:05:22.123Z,37.58
2019-02-19T11:07:53.657Z,36.55
2019-02-19T11:10:22.772Z,33.73
2019-02-19T11:12:51.659Z,30.68
2019-02-19T11:15:22.546Z,32.08
2019-02-19T11:17:51.227Z,30.65
2019-02-19T11:20:22.611Z,35.25
2019-02-19T11:22:51.523Z,32.50
2019-02-19T11:25:20.234Z,28.17
2019-02-19T11:27:49.334Z,28.25
2019-02-19T11:30:20.611Z,22.80
2019-02-19T11:32:50.074Z,26.45
2019-02-19T11:35:19.148Z,22.35
2019-02-19T11:37:48.296Z,22.95
2019-02-19T11:40:20.047Z,22.07
2019-02-19T11:42:50.262Z,34.40
2019-02-19T11:45:20.591Z,20.43
2019-02-19T11:47:49.939Z,24.37
2019-02-19T11:50:18.769Z,25.70
2019-02-19T11:52:47.702Z,25.40
2019-02-19T11:55:18.523Z,22.98
2019-02-19T11:57:47.524Z,23.42
2019-02-19T12:00:21.446Z,22.90
2019-02-19T12:02:50.433Z,27.70
2019-02-19T12:05:20.451Z,21.77
2019-02-19T12:07:49.241Z,17.42
2019-02-19T12:10:18.193Z,20.30
2019-02-19T12:12:47.075Z,19.65
2019-02-19T12:15:16.088Z,20.97
2019-02-19T12:17:44.804Z,16.80
2019-02-19T12:20:14.740Z,28.40
2019-02-19T12:22:43.589Z,23.00
2019-02-19T12:25:12.559Z,17.70
2019-02-19T12:27:41.222Z,17.42
2019-02-19T12:30:20.866Z,18.50
2019-02-19T12:32:51.345Z,17.73
2019-02-19T12:35:20.155Z,17.32
2019-02-19T12:37:49.009Z,18.25
2019-02-19T12:40:17.785Z,18.65
2019-02-19T12:42:46.724Z,18.87
2019-02-19T12:45:16.432Z,18.27
2019-02-19T12:47:45.315Z,22.98
2019-02-19T12:50:18.969Z,22.77
2019-02-19T12:52:47.884Z,20.17
2019-02-19T12:55:17.330Z,21.68
2019-02-19T12:57:46.125Z,19.50
2019-02-19T13:00:18.832Z,16.57
2019-02-19T13:02:48.126Z,16.07
2019-02-19T13:05:17.473Z,17.98
2019-02-19T13:07:47.048Z,15.85
2019-02-19T13:10:16.085Z,23.50
2019-02-19T13:12:44.867Z,21.37
2019-02-19T13:15:15.945Z,18.07
2019-02-19T13:17:45.120Z,16.50
2019-02-19T13:20:15.133Z,15.90
2019-02-19T13:22:43.915Z,15.32
2019-02-19T13:25:13.009Z,15.98
2019-02-19T13:27:41.826Z,14.35
2019-02-19T13:30:13.420Z,14.98
2019-02-19T13:32:42.478Z,16.20
2019-02-19T13:35:12.526Z,16.62
2019-02-19T13:37:41.605Z,18.37
2019-02-19T13:40:13.446Z,12.65
2019-02-19T13:42:42.178Z,14.98
2019-02-19T13:45:15.786Z,16.93
2019-02-19T13:47:44.459Z,13.40
2019-02-19T13:50:22.626Z,20.05
2019-02-19T13:52:53.352Z,16.45
2019-02-19T13:55:23.852Z,17.52
2019-02-19T13:57:53.216Z,16.42
2019-02-19T14:00:24.005Z,15.58
2019-02-19T14:02:52.666Z,15.25
2019-02-19T14:05:21.629Z,14.15
2019-02-19T14:07:50.278Z,17.17
2019-02-19T14:10:19.107Z,13.72
2019-02-19T14:12:48.092Z,14.78
2019-02-19T14:15:21.498Z,18.27
2019-02-19T14:17:50.282Z,16.00
2019-02-19T14:20:23.810Z,16.20
2019-02-19T14:22:57.013Z,13.28
2019-02-19T14:25:27.415Z,13.55
2019-02-19T14:28:14.548Z,14.15
2019-02-19T14:30:45.984Z,12.78
2019-02-19T14:33:32.578Z,20.10
2019-02-19T14:36:21.751Z,15.00
2019-02-19T14:38:54.871Z,14.98
2019-02-19T14:41:40.850Z,13.53
2019-02-19T14:44:13.845Z,16.12
2019-02-19T14:46:44.230Z,15.53
2019-02-19T14:49:37.114Z,13.37
2019-02-19T14:52:14.354Z,21.10
2019-02-19T14:55:01.294Z,20.27
2019-02-19T14:57:32.066Z,20.90
2019-02-19T15:00:18.615Z,18.80
2019-02-19T15:02:51.738Z,31.77
2019-02-19T15:05:37.401Z,21.83
2019-02-19T15:08:08.632Z,16.57
2019-02-19T15:10:38.931Z,13.63
2019-02-19T15:13:09.286Z,15.90
2019-02-19T15:15:51.684Z,13.77
2019-02-19T15:18:22.145Z,19.23
2019-02-19T15:20:52.429Z,23.70
2019-02-19T15:23:28.634Z,28.47
2019-02-19T15:26:02.105Z,24.30
2019-02-19T15:28:35.684Z,31.83
2019-02-19T15:31:24.845Z,36.00
2019-02-19T15:34:07.401Z,33.03
2019-02-19T15:36:38.080Z,43.80
2019-02-19T15:39:24.996Z,29.53
2019-02-19T15:42:01.059Z,34.50
2019-02-19T15:44:37.591Z,32.07
2019-02-19T15:47:24.785Z,29.53
2019-02-19T15:50:01.187Z,28.70
2019-02-19T15:52:37.844Z,35.03
2019-02-19T15:55:08.538Z,29.03
2019-02-19T15:57:42.021Z,23.07
2019-02-19T16:00:30.433Z,20.37
2019-02-19T16:03:10.007Z,27.27
2019-02-19T16:05:43.022Z,37.07
2019-02-19T16:08:18.976Z,38.83
2019-02-19T16:10:49.506Z,31.73
2019-02-19T16:13:19.798Z,24.40
2019-02-19T16:16:08.079Z,29.37
2019-02-19T16:18:54.739Z,32.40
2019-02-19T16:21:31.126Z,33.70
2019-02-19T16:24:10.697Z,29.07
2019-02-19T16:26:43.869Z,27.53
2019-02-19T16:29:26.170Z,25.03
2019-02-19T16:32:05.481Z,26.90
2019-02-19T16:34:41.737Z,32.60
2019-02-19T16:37:18.097Z,37.63
2019-02-19T16:40:00.651Z,36.17
2019-02-19T16:42:36.895Z,36.30
2019-02-19T16:45:12.290Z,38.10
2019-02-19T16:47:45.658Z,29.87
2019-02-19T16:50:18.669Z,30.67
2019-02-19T16:52:51.685Z,27.80
2019-02-19T16:55:27.711Z,28.07
2019-02-19T16:58:07.284Z,28.90
2019-02-19T17:00:53.967Z,29.50
2019-02-19T17:03:33.267Z,31.30
2019-02-19T17:06:04.429Z,27.80
2019-02-19T17:08:34.649Z,23.90
2019-02-19T17:11:13.863Z,26.13
2019-02-19T17:13:44.122Z,29.53
2019-02-19T17:16:23.447Z,28.27
2019-02-19T17:19:02.694Z,22.67
2019-02-19T17:21:42.368Z,39.27
2019-02-19T17:24:18.703Z,27.47
2019-02-19T17:26:48.982Z,33.13
2019-02-19T17:29:35.401Z,34.83
2019-02-19T17:32:17.608Z,27.03
2019-02-19T17:35:04.351Z,26.43
2019-02-19T17:37:50.805Z,22.23
2019-02-19T17:40:37.414Z,23.27
2019-02-19T17:43:14.351Z,29.23
2019-02-19T17:45:44.609Z,28.53
2019-02-19T17:48:26.835Z,36.63
2019-02-19T17:51:03.275Z,28.17
2019-02-19T17:53:37.299Z,25.47
2019-02-19T17:56:07.536Z,27.50
2019-02-19T17:58:46.771Z,33.40
2019-02-19T18:01:32.216Z,37.13
2019-02-19T18:04:08.556Z,23.67
2019-02-19T18:06:50.871Z,14.87
2019-02-19T18:09:21.126Z,16.30
2019-02-19T18:12:00.239Z,16.27
2019-02-19T18:14:33.505Z,16.20
2019-02-19T18:17:12.474Z,13.47
2019-02-19T18:19:41.153Z,18.13
2019-02-19T18:22:09.820Z,15.80
2019-02-19T18:24:38.533Z,16.83
2019-02-19T18:27:07.189Z,15.97
2019-02-19T18:29:35.907Z,13.63
2019-02-19T18:32:04.529Z,13.20
2019-02-19T18:34:33.296Z,14.37
2019-02-19T18:37:01.974Z,15.10
2019-02-19T18:39:30.665Z,13.57
2019-02-19T18:41:59.326Z,15.60
2019-02-19T18:44:28.049Z,15.03
2019-02-19T18:46:56.741Z,17.37
2019-02-19T18:49:25.501Z,16.83
2019-02-19T18:51:54.435Z,20.93
2019-02-19T18:54:23.253Z,24.53
2019-02-19T18:56:51.900Z,34.77
2019-02-19T18:59:20.568Z,35.60
2019-02-19T19:01:49.296Z,40.00
2019-02-19T19:04:18.061Z,39.50
2019-02-19T19:06:46.751Z,39.13
2019-02-19T19:09:15.440Z,32.90
2019-02-19T19:11:44.297Z,36.87
2019-02-19T19:14:13.151Z,39.30
2019-02-19T19:16:41.866Z,38.60
2019-02-19T19:19:10.500Z,36.77
2019-02-19T19:21:39.175Z,32.70
2019-02-19T19:24:08.353Z,33.03
2019-02-19T19:26:37.042Z,38.53
2019-02-19T19:29:05.706Z,33.47
2019-02-19T19:31:34.399Z,29.03
2019-02-19T19:34:03.077Z,28.17
2019-02-19T19:36:31.764Z,29.70
2019-02-19T19:39:00.435Z,24.33
2019-02-19T19:41:29.112Z,29.03
2019-02-19T19:43:57.789Z,23.93
2019-02-19T19:46:26.503Z,21.07
2019-02-19T19:48:55.192Z,25.73
2019-02-19T19:51:23.853Z,25.33
2019-02-19T19:53:52.542Z,22.17
2019-02-19T19:56:21.374Z,24.30
2019-02-19T19:58:50.040Z,28.63
2019-02-19T20:01:18.855Z,30.60
2019-02-19T20:03:47.787Z,24.43
2019-02-19T20:06:16.513Z,31.20
2019-02-19T20:08:45.465Z,30.97
2019-02-19T20:11:14.151Z,27.67
2019-02-19T20:13:42.872Z,42.63
2019-02-19T20:16:11.661Z,38.00
2019-02-19T20:18:40.559Z,36.27
2019-02-19T20:21:09.240Z,35.67
2019-02-19T20:23:37.951Z,36.10
2019-02-19T20:26:06.616Z,35.43
2019-02-19T20:28:37.187Z,37.70
2019-02-19T20:31:05.866Z,34.77
2019-02-19T20:33:34.542Z,36.60
2019-02-19T20:36:03.563Z,37.57
2019-02-19T20:38:32.395Z,42.10
2019-02-19T20:41:01.386Z,53.00
2019-02-19T20:43:30.172Z,44.17
2019-02-19T20:45:59.053Z,41.20
2019-02-19T20:48:27.749Z,35.63
2019-02-19T20:50:56.734Z,37.17
2019-02-19T20:53:25.487Z,29.70
2019-02-19T20:55:54.338Z,29.03
2019-02-19T20:58:23.303Z,33.13
2019-02-19T21:00:53.332Z,30.93
2019-02-19T21:03:25.283Z,32.57
2019-02-19T21:05:54.278Z,27.93
2019-02-19T21:08:23.376Z,41.00
2019-02-19T21:10:52.272Z,30.33
2019-02-19T21:13:21.584Z,32.77
2019-02-19T21:15:50.579Z,31.90
2019-02-19T21:18:19.455Z,42.77
2019-02-19T21:20:48.740Z,32.77
2019-02-19T21:23:17.592Z,44.10
2019-02-19T21:25:46.749Z,39.87
2019-02-19T21:28:15.597Z,48.70
2019-02-19T21:30:45.465Z,52.57
2019-02-19T21:33:15.074Z,46.33
2019-02-19T21:35:43.915Z,44.27
2019-02-19T21:38:12.822Z,44.87
2019-02-19T21:40:41.776Z,41.30
2019-02-19T21:43:10.748Z,40.70
2019-02-19T21:45:40.379Z,36.83
2019-02-19T21:48:09.265Z,36.10
2019-02-19T21:50:38.176Z,37.80
2019-02-19T21:53:07.242Z,42.67
2019-02-19T21:55:36.340Z,40.40
2019-02-19T21:58:05.435Z,32.50
2019-02-19T22:00:34.328Z,39.63
2019-02-19T22:03:03.322Z,37.97
2019-02-19T22:05:32.237Z,31.37
2019-02-19T22:08:01.224Z,29.03
2019-02-19T22:10:30.049Z,30.23
2019-02-19T22:12:59.098Z,29.07
2019-02-19T22:15:28.003Z,30.40
2019-02-19T22:17:56.990Z,35.47
2019-02-19T22:20:43.497Z,34.93
2019-02-19T22:23:12.507Z,38.90
2019-02-19T22:25:41.386Z,34.90
2019-02-19T22:28:10.383Z,40.17
2019-02-19T22:30:39.475Z,37.70
2019-02-19T22:33:08.879Z,36.27
2019-02-19T22:35:37.979Z,37.90
2019-02-19T22:38:06.879Z,43.17
2019-02-19T22:40:35.971Z,40.33
2019-02-19T22:43:05.075Z,42.13
2019-02-19T22:45:33.969Z,41.33
2019-02-19T22:48:02.805Z,37.27
2019-02-19T22:50:31.763Z,37.37
2019-02-19T22:53:00.871Z,31.27
2019-02-19T22:55:37.117Z,44.80
2019-02-19T22:58:06.213Z,39.53
2019-02-19T23:00:49.455Z,36.50
2019-02-19T23:03:19.863Z,45.80
2019-02-19T23:05:48.770Z,37.10
2019-02-19T23:08:17.620Z,32.73
2019-02-19T23:10:46.563Z,35.73
2019-02-19T23:13:15.804Z,38.50
2019-02-19T23:15:45.462Z,34.03
2019-02-19T23:18:14.547Z,31.50
2019-02-19T23:20:43.453Z,34.67
2019-02-19T23:23:12.459Z,33.47
2019-02-19T23:25:41.549Z,42.07
2019-02-19T23:28:10.543Z,30.90
2019-02-19T23:30:39.442Z,33.40
2019-02-19T23:33:08.643Z,34.63
2019-02-19T23:35:41.867Z,41.23
2019-02-19T23:38:10.827Z,35.03
2019-02-19T23:40:39.719Z,34.57
2019-02-19T23:43:08.621Z,39.53
2019-02-19T23:45:37.611Z,36.47
2019-02-19T23:48:06.503Z,36.90
2019-02-19T23:50:35.407Z,31.13
2019-02-19T23:53:04.403Z,36.70
2019-02-19T23:55:33.490Z,31.53
2019-02-19T23:58:02.384Z,28.03
